レイキャビク/ケフラヴィーク の空港の天気 - METARとTAF

ケフラヴィーク国際空港 ( BIKF / KEF ) - アイスランド ケプラヴィーク
飛行場実況気象(Metar)
観測時間08/17 11:30 GMT (08/17 11:30 UTC)
風向・風速北北東 11m/s
視程10km以上
天気現象
少しの雲 雲底高度 430m
全天の4割程度の雲 雲底高度 6100m
気温12℃
湿度67%
気圧998hPa
METARBIKF 171130Z 02021KT 9999 FEW014 SCT200 12/06 Q0998
過去の天気等 Google飛行場航空写真 Wunderground天気予報

過去48時間のMETAR

飛行場予報(TAF)
発表時間: 8/17 10:53 GMT (8/17 10:53 UTC)
予報対象時間: 17日12時 GMT ~ 18日12時 GMT
風向・風速北北東 10m/s
視程10km以上
少しの雲 雲底高度 460m
17日12時 GMT ~ 18日12時 GMT に一時的に
風向・風速北北東 13m/s 瞬間風速 18m/s
TAF BIKF 171053Z 1712/1812 02020KT 9999 FEW015 TX13/1715Z TN07/1803Z
TEMPO 1712/1812 02025G35KT